sensor_id;sensor_type;location;lat;lon;timestamp;pressure;altitude;pressure_sealevel;temperature;humidity
64402;BME280;50724;42.376;23.768;2023-03-16T00:01:23;92144.22;;;3.90;88.98
64402;BME280;50724;42.376;23.768;2023-03-16T00:04:23;92149.19;;;3.83;88.87
64402;BME280;50724;42.376;23.768;2023-03-16T00:07:24;92153.25;;;3.68;89.11
64402;BME280;50724;42.376;23.768;2023-03-16T00:10:24;92146.78;;;3.46;89.50
64402;BME280;50724;42.376;23.768;2023-03-16T00:13:26;92151.72;;;3.40;89.34
64402;BME280;50724;42.376;23.768;2023-03-16T00:16:26;92151.34;;;3.17;90.14
64402;BME280;50724;42.376;23.768;2023-03-16T00:19:27;92159.31;;;3.06;90.41
64402;BME280;50724;42.376;23.768;2023-03-16T00:22:29;92168.09;;;3.13;90.53
64402;BME280;50724;42.376;23.768;2023-03-16T00:25:30;92163.25;;;3.01;89.56
64402;BME280;50724;42.376;23.768;2023-03-16T00:28:33;92164.38;;;2.98;89.79
64402;BME280;50724;42.376;23.768;2023-03-16T00:31:34;92156.94;;;2.95;89.72
64402;BME280;50724;42.376;23.768;2023-03-16T00:34:35;92161.22;;;3.04;89.54
64402;BME280;50724;42.376;23.768;2023-03-16T00:37:35;92162.94;;;3.13;89.59
64402;BME280;50724;42.376;23.768;2023-03-16T00:40:36;92173.41;;;3.12;88.20
64402;BME280;50724;42.376;23.768;2023-03-16T00:43:37;92175.63;;;3.07;88.40
64402;BME280;50724;42.376;23.768;2023-03-16T00:46:40;92180.00;;;2.97;87.77
64402;BME280;50724;42.376;23.768;2023-03-16T00:49:42;92176.19;;;3.01;87.07
64402;BME280;50724;42.376;23.768;2023-03-16T00:52:43;92184.78;;;2.92;87.84
64402;BME280;50724;42.376;23.768;2023-03-16T00:55:44;92184.59;;;3.03;88.23
64402;BME280;50724;42.376;23.768;2023-03-16T00:58:44;92177.09;;;3.09;87.08
64402;BME280;50724;42.376;23.768;2023-03-16T01:01:44;92173.16;;;3.05;87.34
64402;BME280;50724;42.376;23.768;2023-03-16T01:04:46;92177.66;;;3.03;87.55
64402;BME280;50724;42.376;23.768;2023-03-16T01:07:46;92179.19;;;2.96;86.57
64402;BME280;50724;42.376;23.768;2023-03-16T01:10:47;92194.59;;;2.88;86.92
64402;BME280;50724;42.376;23.768;2023-03-16T01:13:49;92181.88;;;2.77;87.11
64402;BME280;50724;42.376;23.768;2023-03-16T01:16:49;92193.72;;;2.70;86.87
64402;BME280;50724;42.376;23.768;2023-03-16T01:19:51;92195.78;;;2.66;87.07
64402;BME280;50724;42.376;23.768;2023-03-16T01:22:51;92192.81;;;2.61;87.41
64402;BME280;50724;42.376;23.768;2023-03-16T01:25:52;92186.31;;;2.57;87.74
64402;BME280;50724;42.376;23.768;2023-03-16T01:28:53;92193.47;;;2.63;87.45
64402;BME280;50724;42.376;23.768;2023-03-16T01:31:54;92197.31;;;2.59;87.66
64402;BME280;50724;42.376;23.768;2023-03-16T01:34:55;92201.28;;;2.44;87.47
64402;BME280;50724;42.376;23.768;2023-03-16T01:37:55;92204.97;;;2.42;87.90
64402;BME280;50724;42.376;23.768;2023-03-16T01:40:56;92198.88;;;2.33;87.93
64402;BME280;50724;42.376;23.768;2023-03-16T01:43:56;92212.88;;;2.31;88.22
64402;BME280;50724;42.376;23.768;2023-03-16T01:46:57;92208.25;;;2.44;87.45
64402;BME280;50724;42.376;23.768;2023-03-16T01:49:57;92216.53;;;2.28;87.01
64402;BME280;50724;42.376;23.768;2023-03-16T01:52:58;92219.38;;;2.25;87.85
64402;BME280;50724;42.376;23.768;2023-03-16T01:55:59;92209.63;;;2.29;87.52
64402;BME280;50724;42.376;23.768;2023-03-16T01:59:07;92217.66;;;2.16;87.70
64402;BME280;50724;42.376;23.768;2023-03-16T02:02:10;92222.53;;;2.19;87.67
64402;BME280;50724;42.376;23.768;2023-03-16T02:05:23;92223.47;;;2.28;87.33
64402;BME280;50724;42.376;23.768;2023-03-16T02:08:26;92224.69;;;2.24;87.24
64402;BME280;50724;42.376;23.768;2023-03-16T02:11:27;92226.59;;;2.31;87.06
64402;BME280;50724;42.376;23.768;2023-03-16T02:14:27;92224.94;;;2.30;86.49
64402;BME280;50724;42.376;23.768;2023-03-16T02:17:30;92231.59;;;2.33;86.64
64402;BME280;50724;42.376;23.768;2023-03-16T02:23:59;92239.06;;;2.45;85.95
64402;BME280;50724;42.376;23.768;2023-03-16T02:27:04;92242.88;;;2.41;85.52
64402;BME280;50724;42.376;23.768;2023-03-16T02:30:14;92247.91;;;2.33;85.54
64402;BME280;50724;42.376;23.768;2023-03-16T02:33:16;92248.03;;;2.32;85.90
64402;BME280;50724;42.376;23.768;2023-03-16T02:36:19;92247.63;;;2.36;85.42
64402;BME280;50724;42.376;23.768;2023-03-16T02:39:20;92246.66;;;2.37;85.57
64402;BME280;50724;42.376;23.768;2023-03-16T02:42:22;92244.88;;;2.47;85.71
64402;BME280;50724;42.376;23.768;2023-03-16T02:45:26;92248.00;;;2.51;85.47
64402;BME280;50724;42.376;23.768;2023-03-16T02:48:36;92251.03;;;2.27;85.15
64402;BME280;50724;42.376;23.768;2023-03-16T02:51:43;92253.31;;;2.30;85.67
64402;BME280;50724;42.376;23.768;2023-03-16T02:54:44;92254.69;;;2.34;85.07
64402;BME280;50724;42.376;23.768;2023-03-16T02:57:45;92255.13;;;2.30;84.08
64402;BME280;50724;42.376;23.768;2023-03-16T03:00:45;92257.69;;;2.30;84.36
64402;BME280;50724;42.376;23.768;2023-03-16T03:03:45;92255.38;;;2.36;84.13
64402;BME280;50724;42.376;23.768;2023-03-16T03:06:46;92264.47;;;2.21;83.58
64402;BME280;50724;42.376;23.768;2023-03-16T03:09:46;92267.47;;;2.26;84.25
64402;BME280;50724;42.376;23.768;2023-03-16T03:12:55;92272.34;;;2.20;83.83
64402;BME280;50724;42.376;23.768;2023-03-16T03:15:56;92270.88;;;2.17;84.37
64402;BME280;50724;42.376;23.768;2023-03-16T03:18:57;92281.19;;;2.17;83.47
64402;BME280;50724;42.376;23.768;2023-03-16T03:21:58;92287.69;;;2.31;82.74
64402;BME280;50724;42.376;23.768;2023-03-16T03:24:59;92290.41;;;2.39;82.35
64402;BME280;50724;42.376;23.768;2023-03-16T03:27:59;92294.91;;;2.27;82.84
64402;BME280;50724;42.376;23.768;2023-03-16T03:31:01;92294.19;;;2.35;82.47
64402;BME280;50724;42.376;23.768;2023-03-16T03:34:01;92298.81;;;2.31;82.65
64402;BME280;50724;42.376;23.768;2023-03-16T03:37:05;92297.00;;;2.60;81.01
64402;BME280;50724;42.376;23.768;2023-03-16T03:40:06;92303.41;;;2.56;81.64
64402;BME280;50724;42.376;23.768;2023-03-16T03:43:07;92306.13;;;2.55;80.92
64402;BME280;50724;42.376;23.768;2023-03-16T03:46:08;92309.88;;;2.70;81.17
64402;BME280;50724;42.376;23.768;2023-03-16T03:49:17;92311.97;;;3.03;79.80
64402;BME280;50724;42.376;23.768;2023-03-16T03:52:18;92313.44;;;3.06;79.19
64402;BME280;50724;42.376;23.768;2023-03-16T03:55:18;92308.47;;;2.95;79.76
64402;BME280;50724;42.376;23.768;2023-03-16T03:58:18;92318.78;;;2.95;79.26
64402;BME280;50724;42.376;23.768;2023-03-16T04:01:19;92316.53;;;2.72;80.12
64402;BME280;50724;42.376;23.768;2023-03-16T04:04:20;92327.03;;;2.61;81.33
64402;BME280;50724;42.376;23.768;2023-03-16T04:07:20;92332.34;;;2.60;78.68
64402;BME280;50724;42.376;23.768;2023-03-16T04:10:21;92336.44;;;2.43;78.56
64402;BME280;50724;42.376;23.768;2023-03-16T04:13:21;92341.03;;;2.21;80.08
64402;BME280;50724;42.376;23.768;2023-03-16T04:16:21;92351.75;;;2.26;81.96
64402;BME280;50724;42.376;23.768;2023-03-16T04:19:25;92350.00;;;2.45;78.91
64402;BME280;50724;42.376;23.768;2023-03-16T04:22:26;92352.72;;;2.25;78.78
64402;BME280;50724;42.376;23.768;2023-03-16T04:25:29;92353.13;;;2.01;79.71
64402;BME280;50724;42.376;23.768;2023-03-16T04:28:30;92361.38;;;1.95;79.92
64402;BME280;50724;42.376;23.768;2023-03-16T04:31:40;92365.72;;;1.85;80.31
64402;BME280;50724;42.376;23.768;2023-03-16T04:34:50;92368.25;;;1.66;81.03
64402;BME280;50724;42.376;23.768;2023-03-16T04:37:54;92360.63;;;1.55;81.52
64402;BME280;50724;42.376;23.768;2023-03-16T04:40:55;92364.69;;;1.57;81.75
64402;BME280;50724;42.376;23.768;2023-03-16T04:43:56;92374.84;;;1.49;82.03
64402;BME280;50724;42.376;23.768;2023-03-16T04:46:56;92374.56;;;1.43;82.33
64402;BME280;50724;42.376;23.768;2023-03-16T04:50:00;92379.53;;;1.34;82.99
64402;BME280;50724;42.376;23.768;2023-03-16T04:53:02;92379.69;;;1.33;83.34
64402;BME280;50724;42.376;23.768;2023-03-16T04:56:03;92377.84;;;1.14;83.50
64402;BME280;50724;42.376;23.768;2023-03-16T04:59:04;92379.72;;;1.12;84.01
64402;BME280;50724;42.376;23.768;2023-03-16T05:02:04;92386.38;;;1.15;83.66
64402;BME280;50724;42.376;23.768;2023-03-16T05:05:05;92395.47;;;1.19;83.72
64402;BME280;50724;42.376;23.768;2023-03-16T05:08:06;92393.25;;;1.35;83.59
64402;BME280;50724;42.376;23.768;2023-03-16T05:11:06;92403.69;;;1.43;82.84
64402;BME280;50724;42.376;23.768;2023-03-16T05:14:07;92396.72;;;1.55;82.75
64402;BME280;50724;42.376;23.768;2023-03-16T05:17:07;92404.84;;;1.60;81.55
64402;BME280;50724;42.376;23.768;2023-03-16T05:20:10;92407.69;;;1.57;81.10
64402;BME280;50724;42.376;23.768;2023-03-16T05:23:12;92404.50;;;1.44;82.11
64402;BME280;50724;42.376;23.768;2023-03-16T05:26:12;92411.66;;;1.70;81.71
64402;BME280;50724;42.376;23.768;2023-03-16T05:29:12;92413.53;;;1.59;81.97
64402;BME280;50724;42.376;23.768;2023-03-16T05:32:13;92414.84;;;1.53;81.27
64402;BME280;50724;42.376;23.768;2023-03-16T05:35:13;92416.06;;;1.49;82.11
64402;BME280;50724;42.376;23.768;2023-03-16T05:38:14;92417.72;;;1.60;82.10
64402;BME280;50724;42.376;23.768;2023-03-16T05:41:15;92418.19;;;1.74;81.25
64402;BME280;50724;42.376;23.768;2023-03-16T05:44:17;92411.97;;;1.86;80.60
64402;BME280;50724;42.376;23.768;2023-03-16T05:47:18;92420.97;;;2.01;80.05
64402;BME280;50724;42.376;23.768;2023-03-16T05:50:18;92416.81;;;2.20;79.10
64402;BME280;50724;42.376;23.768;2023-03-16T05:53:19;92430.53;;;2.30;79.10
64402;BME280;50724;42.376;23.768;2023-03-16T05:56:20;92429.31;;;2.34;78.15
64402;BME280;50724;42.376;23.768;2023-03-16T05:59:20;92425.63;;;2.27;78.53
64402;BME280;50724;42.376;23.768;2023-03-16T06:02:21;92429.28;;;2.15;79.61
64402;BME280;50724;42.376;23.768;2023-03-16T06:05:21;92434.22;;;2.37;79.48
64402;BME280;50724;42.376;23.768;2023-03-16T06:08:23;92437.03;;;2.24;79.75
64402;BME280;50724;42.376;23.768;2023-03-16T06:11:23;92433.94;;;2.68;78.65
64402;BME280;50724;42.376;23.768;2023-03-16T06:14:24;92441.81;;;2.48;77.73
64402;BME280;50724;42.376;23.768;2023-03-16T06:17:24;92445.06;;;2.50;77.81
64402;BME280;50724;42.376;23.768;2023-03-16T06:20:25;92438.81;;;2.91;76.23
64402;BME280;50724;42.376;23.768;2023-03-16T06:23:26;92452.81;;;2.59;75.67
64402;BME280;50724;42.376;23.768;2023-03-16T06:26:26;92451.06;;;2.60;76.67
64402;BME280;50724;42.376;23.768;2023-03-16T06:29:27;92452.00;;;2.49;75.93
64402;BME280;50724;42.376;23.768;2023-03-16T06:32:27;92463.25;;;2.29;76.55
64402;BME280;50724;42.376;23.768;2023-03-16T06:35:28;92465.81;;;2.20;77.07
64402;BME280;50724;42.376;23.768;2023-03-16T06:38:28;92477.50;;;2.33;76.56
64402;BME280;50724;42.376;23.768;2023-03-16T06:41:36;92481.84;;;2.42;75.73
64402;BME280;50724;42.376;23.768;2023-03-16T06:44:37;92489.56;;;2.33;76.11
64402;BME280;50724;42.376;23.768;2023-03-16T06:47:38;92488.25;;;2.48;75.48
64402;BME280;50724;42.376;23.768;2023-03-16T06:50:38;92502.66;;;2.79;74.03
64402;BME280;50724;42.376;23.768;2023-03-16T06:53:38;92512.34;;;2.87;73.85
64402;BME280;50724;42.376;23.768;2023-03-16T06:56:39;92505.16;;;3.19;73.19
64402;BME280;50724;42.376;23.768;2023-03-16T06:59:39;92518.06;;;3.09;72.82
64402;BME280;50724;42.376;23.768;2023-03-16T07:02:43;92517.75;;;3.22;73.25
64402;BME280;50724;42.376;23.768;2023-03-16T07:05:43;92516.16;;;3.30;72.21
64402;BME280;50724;42.376;23.768;2023-03-16T07:08:43;92526.91;;;3.16;71.38
64402;BME280;50724;42.376;23.768;2023-03-16T07:11:46;92521.31;;;2.92;71.40
64402;BME280;50724;42.376;23.768;2023-03-16T07:14:47;92527.94;;;2.66;72.59
64402;BME280;50724;42.376;23.768;2023-03-16T07:17:47;92540.19;;;2.73;72.11
64402;BME280;50724;42.376;23.768;2023-03-16T07:20:48;92540.19;;;2.73;72.40
64402;BME280;50724;42.376;23.768;2023-03-16T07:23:49;92544.69;;;2.71;72.56
64402;BME280;50724;42.376;23.768;2023-03-16T07:26:50;92546.97;;;2.55;73.84
64402;BME280;50724;42.376;23.768;2023-03-16T07:29:52;92545.09;;;2.76;72.97
64402;BME280;50724;42.376;23.768;2023-03-16T07:32:52;92549.94;;;2.70;72.94
64402;BME280;50724;42.376;23.768;2023-03-16T07:35:53;92567.31;;;2.58;72.98
64402;BME280;50724;42.376;23.768;2023-03-16T07:38:53;92562.59;;;2.73;73.08
64402;BME280;50724;42.376;23.768;2023-03-16T07:41:54;92563.97;;;2.87;72.80
64402;BME280;50724;42.376;23.768;2023-03-16T07:44:55;92570.81;;;3.07;71.58
64402;BME280;50724;42.376;23.768;2023-03-16T07:47:55;92562.88;;;2.89;71.04
64402;BME280;50724;42.376;23.768;2023-03-16T07:50:56;92578.13;;;3.02;71.65
64402;BME280;50724;42.376;23.768;2023-03-16T07:53:56;92582.63;;;3.00;71.74
64402;BME280;50724;42.376;23.768;2023-03-16T07:56:57;92583.59;;;3.27;69.94
64402;BME280;50724;42.376;23.768;2023-03-16T07:59:57;92575.56;;;3.11;69.96
64402;BME280;50724;42.376;23.768;2023-03-16T08:02:58;92585.19;;;2.90;71.16
64402;BME280;50724;42.376;23.768;2023-03-16T08:05:59;92596.03;;;2.35;72.83
64402;BME280;50724;42.376;23.768;2023-03-16T08:09:02;92593.19;;;1.98;74.32
64402;BME280;50724;42.376;23.768;2023-03-16T08:12:04;92596.34;;;2.11;74.59
64402;BME280;50724;42.376;23.768;2023-03-16T08:15:05;92603.19;;;2.22;74.49
64402;BME280;50724;42.376;23.768;2023-03-16T08:18:05;92605.09;;;2.20;74.66
64402;BME280;50724;42.376;23.768;2023-03-16T08:21:06;92613.50;;;2.22;74.46
64402;BME280;50724;42.376;23.768;2023-03-16T08:24:07;92613.16;;;2.36;74.58
64402;BME280;50724;42.376;23.768;2023-03-16T08:27:08;92617.34;;;2.27;74.47
64402;BME280;50724;42.376;23.768;2023-03-16T08:30:11;92621.94;;;2.24;75.19
64402;BME280;50724;42.376;23.768;2023-03-16T08:33:11;92623.97;;;2.20;75.81
64402;BME280;50724;42.376;23.768;2023-03-16T08:36:17;92615.94;;;2.23;75.30
64402;BME280;50724;42.376;23.768;2023-03-16T08:39:17;92621.97;;;2.33;75.04
64402;BME280;50724;42.376;23.768;2023-03-16T08:42:18;92617.69;;;2.43;74.65
64402;BME280;50724;42.376;23.768;2023-03-16T08:45:20;92620.47;;;2.31;74.74
64402;BME280;50724;42.376;23.768;2023-03-16T08:48:20;92617.03;;;2.60;73.38
64402;BME280;50724;42.376;23.768;2023-03-16T08:51:21;92630.84;;;2.40;73.62
64402;BME280;50724;42.376;23.768;2023-03-16T08:54:21;92632.47;;;2.41;74.02
64402;BME280;50724;42.376;23.768;2023-03-16T08:57:22;92628.69;;;2.45;72.88
64402;BME280;50724;42.376;23.768;2023-03-16T09:00:23;92629.06;;;2.41;73.37
64402;BME280;50724;42.376;23.768;2023-03-16T09:03:24;92629.97;;;2.70;72.10
64402;BME280;50724;42.376;23.768;2023-03-16T09:06:25;92628.16;;;3.01;71.16
64402;BME280;50724;42.376;23.768;2023-03-16T09:09:26;92630.47;;;2.94;70.58
64402;BME280;50724;42.376;23.768;2023-03-16T09:12:28;92635.75;;;2.83;72.05
64402;BME280;50724;42.376;23.768;2023-03-16T09:15:28;92635.66;;;3.13;70.86
64402;BME280;50724;42.376;23.768;2023-03-16T09:18:28;92639.31;;;3.11;71.06
64402;BME280;50724;42.376;23.768;2023-03-16T09:21:29;92631.59;;;3.30;70.70
64402;BME280;50724;42.376;23.768;2023-03-16T09:24:30;92634.41;;;3.08;70.33
64402;BME280;50724;42.376;23.768;2023-03-16T09:27:32;92638.84;;;2.87;71.68
64402;BME280;50724;42.376;23.768;2023-03-16T09:30:32;92646.06;;;2.83;71.18
64402;BME280;50724;42.376;23.768;2023-03-16T09:33:34;92641.13;;;2.70;72.04
64402;BME280;50724;42.376;23.768;2023-03-16T09:36:35;92645.66;;;2.88;71.43
64402;BME280;50724;42.376;23.768;2023-03-16T09:39:35;92642.06;;;3.57;69.74
64402;BME280;50724;42.376;23.768;2023-03-16T09:42:38;92644.25;;;3.62;67.92
64402;BME280;50724;42.376;23.768;2023-03-16T09:48:55;92641.13;;;3.48;68.21
64402;BME280;50724;42.376;23.768;2023-03-16T09:58:19;92634.88;;;3.70;67.39
64402;BME280;50724;42.376;23.768;2023-03-16T10:05:08;92637.88;;;3.56;67.18
64402;BME280;50724;42.376;23.768;2023-03-16T10:08:22;92646.72;;;3.44;67.85
64402;BME280;50724;42.376;23.768;2023-03-16T10:26:24;92641.50;;;3.92;67.60
64402;BME280;50724;42.376;23.768;2023-03-16T10:29:31;92632.56;;;3.67;67.67
64402;BME280;50724;42.376;23.768;2023-03-16T10:32:35;92643.00;;;3.75;68.25
64402;BME280;50724;42.376;23.768;2023-03-16T10:39:24;92636.09;;;3.28;68.87
64402;BME280;50724;42.376;23.768;2023-03-16T10:42:34;92645.63;;;3.66;68.96
64402;BME280;50724;42.376;23.768;2023-03-16T10:45:36;92637.06;;;3.75;68.02
64402;BME280;50724;42.376;23.768;2023-03-16T10:48:37;92642.22;;;3.36;68.90
64402;BME280;50724;42.376;23.768;2023-03-16T10:51:37;92642.06;;;3.47;69.35
64402;BME280;50724;42.376;23.768;2023-03-16T10:54:39;92628.22;;;3.58;69.03
64402;BME280;50724;42.376;23.768;2023-03-16T10:57:41;92635.66;;;3.80;68.24
64402;BME280;50724;42.376;23.768;2023-03-16T11:00:45;92631.44;;;3.98;66.69
64402;BME280;50724;42.376;23.768;2023-03-16T11:03:51;92635.41;;;3.74;67.60
64402;BME280;50724;42.376;23.768;2023-03-16T11:06:54;92642.22;;;3.75;67.87
64402;BME280;50724;42.376;23.768;2023-03-16T11:09:55;92638.47;;;4.06;67.25
64402;BME280;50724;42.376;23.768;2023-03-16T11:13:08;92635.88;;;4.15;66.26
64402;BME280;50724;42.376;23.768;2023-03-16T11:19:34;92637.41;;;3.99;67.57
64402;BME280;50724;42.376;23.768;2023-03-16T11:22:37;92627.78;;;3.72;67.68
64402;BME280;50724;42.376;23.768;2023-03-16T11:25:47;92646.69;;;3.92;67.90
64402;BME280;50724;42.376;23.768;2023-03-16T11:28:58;92640.84;;;4.36;66.84
64402;BME280;50724;42.376;23.768;2023-03-16T11:32:09;92641.84;;;4.26;67.22
64402;BME280;50724;42.376;23.768;2023-03-16T11:35:19;92644.16;;;4.38;65.84
64402;BME280;50724;42.376;23.768;2023-03-16T11:38:33;92638.88;;;4.57;65.48
64402;BME280;50724;42.376;23.768;2023-03-16T11:54:54;92650.72;;;4.13;66.96
64402;BME280;50724;42.376;23.768;2023-03-16T11:58:05;92658.63;;;4.22;67.19
64402;BME280;50724;42.376;23.768;2023-03-16T12:01:25;92650.25;;;4.47;65.60
64402;BME280;50724;42.376;23.768;2023-03-16T12:04:50;92663.25;;;4.08;67.17
64402;BME280;50724;42.376;23.768;2023-03-16T12:14:26;92664.06;;;4.18;67.23
64402;BME280;50724;42.376;23.768;2023-03-16T12:17:31;92659.06;;;3.98;68.00
64402;BME280;50724;42.376;23.768;2023-03-16T12:20:49;92661.34;;;4.20;66.94
64402;BME280;50724;42.376;23.768;2023-03-16T12:23:55;92664.09;;;4.09;68.15
64402;BME280;50724;42.376;23.768;2023-03-16T12:26:58;92660.72;;;3.70;69.29
64402;BME280;50724;42.376;23.768;2023-03-16T12:40:13;92676.66;;;3.46;70.69
64402;BME280;50724;42.376;23.768;2023-03-16T12:46:38;92687.47;;;3.31;71.46
64402;BME280;50724;42.376;23.768;2023-03-16T12:49:40;92687.38;;;3.32;70.70
64402;BME280;50724;42.376;23.768;2023-03-16T12:52:44;92678.25;;;3.19;71.32
64402;BME280;50724;42.376;23.768;2023-03-16T12:55:45;92682.19;;;3.32;70.90
64402;BME280;50724;42.376;23.768;2023-03-16T12:58:48;92683.84;;;3.43;70.90
64402;BME280;50724;42.376;23.768;2023-03-16T13:01:51;92686.56;;;3.41;70.71
64402;BME280;50724;42.376;23.768;2023-03-16T13:05:53;92693.19;;;3.25;71.32
64402;BME280;50724;42.376;23.768;2023-03-16T13:08:51;92695.69;;;3.45;70.46
64402;BME280;50724;42.376;23.768;2023-03-16T13:11:53;92696.31;;;3.19;70.73
64402;BME280;50724;42.376;23.768;2023-03-16T13:14:54;92704.06;;;3.09;71.09
64402;BME280;50724;42.376;23.768;2023-03-16T13:21:20;92729.38;;;2.85;73.09
64402;BME280;50724;42.376;23.768;2023-03-16T13:24:26;92727.13;;;2.41;74.45
64402;BME280;50724;42.376;23.768;2023-03-16T13:27:32;92736.72;;;2.29;74.10
64402;BME280;50724;42.376;23.768;2023-03-16T13:30:36;92736.72;;;2.29;74.93
64402;BME280;50724;42.376;23.768;2023-03-16T13:33:37;92743.00;;;2.36;74.48
64402;BME280;50724;42.376;23.768;2023-03-16T13:36:40;92738.72;;;2.26;74.29
64402;BME280;50724;42.376;23.768;2023-03-16T13:39:55;92735.75;;;2.30;74.34
64402;BME280;50724;42.376;23.768;2023-03-16T13:42:57;92734.97;;;2.39;73.31
64402;BME280;50724;42.376;23.768;2023-03-16T13:45:58;92744.81;;;2.45;73.52
64402;BME280;50724;42.376;23.768;2023-03-16T13:48:59;92732.47;;;2.49;73.05
64402;BME280;50724;42.376;23.768;2023-03-16T13:52:02;92735.22;;;2.57;72.39
64402;BME280;50724;42.376;23.768;2023-03-16T13:55:09;92732.13;;;2.63;72.20
64402;BME280;50724;42.376;23.768;2023-03-16T13:58:43;92742.66;;;2.50;72.94
64402;BME280;50724;42.376;23.768;2023-03-16T14:01:44;92748.03;;;2.38;72.92
64402;BME280;50724;42.376;23.768;2023-03-16T14:04:45;92755.69;;;2.49;72.38
64402;BME280;50724;42.376;23.768;2023-03-16T14:07:47;92758.25;;;2.49;71.56
64402;BME280;50724;42.376;23.768;2023-03-16T14:10:49;92756.31;;;2.62;71.01
64402;BME280;50724;42.376;23.768;2023-03-16T14:13:51;92756.41;;;2.51;71.25
64402;BME280;50724;42.376;23.768;2023-03-16T14:17:03;92759.53;;;2.34;71.43
64402;BME280;50724;42.376;23.768;2023-03-16T14:20:18;92753.75;;;2.41;70.86
64402;BME280;50724;42.376;23.768;2023-03-16T14:23:22;92763.94;;;2.43;70.59
64402;BME280;50724;42.376;23.768;2023-03-16T14:26:24;92763.75;;;2.55;69.82
64402;BME280;50724;42.376;23.768;2023-03-16T14:29:28;92771.03;;;2.71;69.44
64402;BME280;50724;42.376;23.768;2023-03-16T14:32:31;92769.31;;;2.81;69.61
64402;BME280;50724;42.376;23.768;2023-03-16T14:35:43;92772.09;;;2.68;70.93
64402;BME280;50724;42.376;23.768;2023-03-16T14:38:45;92774.69;;;2.68;72.07
64402;BME280;50724;42.376;23.768;2023-03-16T14:41:48;92778.22;;;2.47;74.47
64402;BME280;50724;42.376;23.768;2023-03-16T14:44:49;92781.00;;;2.55;75.50
64402;BME280;50724;42.376;23.768;2023-03-16T14:47:50;92779.56;;;2.41;77.24
64402;BME280;50724;42.376;23.768;2023-03-16T14:50:54;92779.81;;;2.18;78.25
64402;BME280;50724;42.376;23.768;2023-03-16T14:53:55;92784.31;;;2.25;79.18
64402;BME280;50724;42.376;23.768;2023-03-16T14:57:01;92787.31;;;2.41;78.30
64402;BME280;50724;42.376;23.768;2023-03-16T15:00:03;92782.84;;;2.43;77.92
64402;BME280;50724;42.376;23.768;2023-03-16T15:03:08;92798.94;;;2.56;76.63
64402;BME280;50724;42.376;23.768;2023-03-16T15:06:10;92793.31;;;2.51;77.15
64402;BME280;50724;42.376;23.768;2023-03-16T15:09:26;92800.88;;;2.23;78.76
64402;BME280;50724;42.376;23.768;2023-03-16T15:12:28;92804.28;;;1.91;80.59
64402;BME280;50724;42.376;23.768;2023-03-16T15:15:29;92809.31;;;1.93;81.38
64402;BME280;50724;42.376;23.768;2023-03-16T15:18:33;92810.00;;;1.95;80.66
64402;BME280;50724;42.376;23.768;2023-03-16T15:21:34;92814.19;;;2.07;80.34
64402;BME280;50724;42.376;23.768;2023-03-16T15:24:34;92823.59;;;1.97;80.05
64402;BME280;50724;42.376;23.768;2023-03-16T15:27:35;92826.22;;;1.86;80.11
64402;BME280;50724;42.376;23.768;2023-03-16T15:30:36;92826.69;;;1.91;80.26
64402;BME280;50724;42.376;23.768;2023-03-16T15:33:37;92830.31;;;1.88;79.96
64402;BME280;50724;42.376;23.768;2023-03-16T15:36:37;92837.13;;;1.78;79.70
64402;BME280;50724;42.376;23.768;2023-03-16T15:39:38;92838.44;;;1.73;79.80
64402;BME280;50724;42.376;23.768;2023-03-16T15:42:39;92836.56;;;1.75;79.33
64402;BME280;50724;42.376;23.768;2023-03-16T15:45:40;92841.63;;;1.65;79.44
64402;BME280;50724;42.376;23.768;2023-03-16T15:48:40;92839.41;;;1.61;79.22
64402;BME280;50724;42.376;23.768;2023-03-16T15:51:41;92846.69;;;1.56;79.95
64402;BME280;50724;42.376;23.768;2023-03-16T15:54:41;92852.19;;;1.51;79.81
64402;BME280;50724;42.376;23.768;2023-03-16T15:57:42;92859.44;;;1.57;79.42
64402;BME280;50724;42.376;23.768;2023-03-16T16:00:45;92867.19;;;1.46;79.03
64402;BME280;50724;42.376;23.768;2023-03-16T16:03:48;92865.44;;;1.47;79.38
64402;BME280;50724;42.376;23.768;2023-03-16T16:06:49;92868.00;;;1.47;79.58
64402;BME280;50724;42.376;23.768;2023-03-16T16:09:52;92865.09;;;1.40;78.88
64402;BME280;50724;42.376;23.768;2023-03-16T16:12:54;92879.03;;;1.37;79.16
64402;BME280;50724;42.376;23.768;2023-03-16T16:15:56;92883.69;;;1.32;79.79
64402;BME280;50724;42.376;23.768;2023-03-16T16:18:56;92886.63;;;1.28;80.25
64402;BME280;50724;42.376;23.768;2023-03-16T16:22:10;92889.78;;;1.20;80.79
64402;BME280;50724;42.376;23.768;2023-03-16T16:25:14;92897.63;;;1.19;81.47
64402;BME280;50724;42.376;23.768;2023-03-16T16:28:21;92894.47;;;1.15;82.30
64402;BME280;50724;42.376;23.768;2023-03-16T16:31:22;92905.94;;;1.11;83.19
64402;BME280;50724;42.376;23.768;2023-03-16T16:34:23;92899.47;;;1.06;84.11
64402;BME280;50724;42.376;23.768;2023-03-16T16:37:24;92912.13;;;0.98;84.47
64402;BME280;50724;42.376;23.768;2023-03-16T16:40:33;92916.19;;;0.89;85.43
64402;BME280;50724;42.376;23.768;2023-03-16T16:43:45;92918.56;;;1.03;84.68
64402;BME280;50724;42.376;23.768;2023-03-16T16:46:47;92925.34;;;1.04;84.17
64402;BME280;50724;42.376;23.768;2023-03-16T16:49:49;92928.41;;;0.98;85.03
64402;BME280;50724;42.376;23.768;2023-03-16T16:52:52;92941.72;;;0.92;85.36
64402;BME280;50724;42.376;23.768;2023-03-16T16:55:58;92944.06;;;0.95;85.30
64402;BME280;50724;42.376;23.768;2023-03-16T16:59:05;92938.44;;;0.90;84.89
64402;BME280;50724;42.376;23.768;2023-03-16T17:02:22;92945.31;;;0.90;84.53
64402;BME280;50724;42.376;23.768;2023-03-16T17:05:27;92948.94;;;0.87;84.55
64402;BME280;50724;42.376;23.768;2023-03-16T17:08:28;92959.50;;;0.95;84.25
64402;BME280;50724;42.376;23.768;2023-03-16T17:11:29;92951.31;;;0.90;84.77
64402;BME280;50724;42.376;23.768;2023-03-16T17:14:30;92961.03;;;0.98;84.32
64402;BME280;50724;42.376;23.768;2023-03-16T17:17:31;92963.00;;;0.94;85.16
64402;BME280;50724;42.376;23.768;2023-03-16T17:20:32;92966.97;;;0.87;85.54
64402;BME280;50724;42.376;23.768;2023-03-16T17:23:33;92969.59;;;0.98;85.15